Latest Weather Observations for Miles

IDQ60801

Issued at 1:02 pm EST Monday 2 March 2015 (issued every 30 minutes, with the page automatically refreshed every 10 minutes)

About weather observations | Map of weather stations | Latest weather observations for QLD | Other Formats
Station Details ID: 042112 Name: MILES CONSTANCE STREET Lat: -26.66 Lon: 150.18 Height: 304.8 m
Data from the previous 72 hours. | See also: Recent months at Miles
Date/Time
EST
Temp
°C
App
Temp
°C
Dew
Point
Rel
Hum
%
Delta-T
°C
Wind Press
QNH
hPa
Press
MSL
hPa
Rain
since 9 am
mm
Dir
 
Spd
km/h
Gust
km/h
Spd
kts
Gust
kts
02/01:00pm 34.4 35.4 17.7 37 10.9 E 9 17 5 9 1011.6 - 0.2
02/12:30pm 33.3 34.4 18.0 40 10.0 S 9 20 5 11 1011.9 - 0.2
02/12:00pm 33.5 34.5 18.6 41 9.8 E 11 17 6 9 1012.7 1011.2 0.2
02/11:30am 33.3 34.8 19.7 44 9.1 E 11 17 6 9 1013.1 - 0.2
02/11:00am 31.7 34.4 20.7 52 7.4 S 7 13 4 7 1013.4 - 0.2
02/10:30am 31.1 33.7 20.5 53 7.1 NE 7 13 4 7 1013.7 - 0.2
02/10:00am 29.4 32.5 21.1 61 5.6 WNW 6 11 3 6 1013.8 - 0.2
02/09:30am 28.5 31.6 21.4 65 4.8 NW 7 11 4 6 1014.0 - 0.2
02/09:00am 26.9 28.9 20.7 69 4.1 N 11 20 6 11 1014.1 1012.5 0.0
02/08:30am 26.6 29.0 20.9 71 3.8 N 9 13 5 7 1014.1 - 0.0
02/08:00am 25.7 27.9 20.4 72 3.5 NNE 9 17 5 9 1013.8 - 0.0
02/07:30am 24.1 25.8 20.1 78 2.6 NNE 11 19 6 10 1013.5 - 0.0
02/07:00am 23.2 25.6 20.0 82 2.1 NNE 7 11 4 6 1013.1 - 0.0
02/06:30am 22.5 24.8 19.9 85 1.7 NNE 7 11 4 6 1012.6 - 0.0
02/06:00am 22.3 25.1 19.7 85 1.7 ENE 4 7 2 4 1012.4 1010.9 0.0
02/05:30am 22.4 25.5 19.6 84 1.8 NNE 2 7 1 4 1011.7 - 0.0
02/05:00am 22.7 24.9 19.6 82 2.0 NE 7 9 4 5 1011.3 - 0.0
02/04:30am 22.7 24.9 19.1 80 2.3 NE 6 9 3 5 1010.7 - 0.0
02/04:00am 22.6 24.8 19.3 81 2.1 NNE 6 9 3 5 1010.1 - 0.0
02/03:30am 22.6 26.6 20.6 88 1.3 CALM 0 0 0 0 1010.1 - 0.0
02/03:00am 23.1 25.7 20.0 83 2.0 ENE 6 7 3 4 1010.2 1008.7 0.0
02/02:30am 23.0 27.1 20.7 87 1.5 CALM 0 6 0 3 1010.2 - 0.0
02/02:00am 23.3 26.9 21.3 88 1.3 N 4 7 2 4 1010.1 - 0.0
02/01:30am 23.5 28.0 21.6 89 1.3 CALM 0 0 0 0 1010.2 - 0.0
02/01:00am 23.7 28.5 22.2 91 1.0 CALM 0 0 0 0 1010.5 - 0.0
02/12:30am 23.8 28.7 22.3 91 1.0 CALM 0 0 0 0 1010.2 - 0.0
02/12:00am 24.6 28.7 22.2 86 1.6 NNE 4 7 2 4 1010.3 1008.8 0.0
 
Date/Time
EST
Temp
°C
App
Temp
°C
Dew
Point
Rel
Hum
%
Delta-T
°C
Wind Press
QNH
hPa
Press
MSL
hPa
Rain
since 9 am
mm
Dir
 
Spd
km/h
Gust
km/h
Spd
kts
Gust
kts
01/11:30pm 24.9 29.1 22.5 86 1.6 E 4 9 2 5 1010.5 - 0.0
01/11:00pm 24.5 29.5 23.2 92 0.9 NNW 2 7 1 4 1011.0 - 0.0
01/10:30pm 24.7 29.3 22.5 87 1.5 N 2 6 1 3 1010.7 - 0.0
01/10:00pm 25.2 29.1 21.9 82 2.2 E 4 6 2 3 1010.8 - 0.0
01/09:30pm 24.9 27.7 21.5 81 2.3 N 9 11 5 6 1009.9 - 0.0
01/09:00pm 25.1 27.0 21.4 80 2.5 W 13 28 7 15 1010.7 1009.1 0.0
01/08:30pm 28.7 30.9 19.6 58 6.0 N 7 11 4 6 1009.8 - 0.0
01/08:00pm 29.2 31.3 19.3 55 6.5 NNE 7 13 4 7 1009.2 - 0.0
01/07:30pm 30.0 31.2 19.0 51 7.2 NNE 11 17 6 9 1008.7 - 0.0
01/07:00pm 30.5 32.0 18.9 50 7.6 NNE 9 17 5 9 1008.2 - 0.0
01/06:30pm 30.9 32.4 18.9 48 7.9 NNE 9 15 5 8 1007.8 - 0.0
01/06:00pm 31.9 33.3 18.7 45 8.7 N 9 13 5 7 1007.9 1006.3 0.0
01/05:30pm 32.1 33.9 18.7 45 8.8 NE 7 11 4 6 1007.5 - 0.0
01/05:00pm 32.5 34.5 18.7 44 9.1 NE 6 7 3 4 1007.2 - 0.0
01/04:30pm 33.3 35.0 18.0 40 10.0 E 6 15 3 8 1007.2 - 0.0
01/04:00pm 34.0 36.0 18.8 40 10.1 N 6 11 3 6 1007.4 - 0.0
01/03:30pm 34.1 35.8 18.5 39 10.3 E 7 9 4 5 1007.8 - 0.0
01/03:00pm 32.4 35.0 19.3 46 8.7 NNW 4 11 2 6 1008.2 1006.6 0.0
01/02:30pm 33.6 35.3 18.6 41 9.9 ESE 7 13 4 7 1008.4 - 0.0
01/02:00pm 32.5 34.0 18.9 44 9.0 NW 9 13 5 7 1008.8 - 0.0
01/01:30pm 32.5 34.0 18.1 42 9.4 NNW 7 15 4 8 1009.3 - 0.0
01/01:00pm 31.6 32.5 18.3 45 8.7 N 11 20 6 11 1009.5 - 0.0
01/12:30pm 32.4 32.4 18.2 42 9.3 N 15 30 8 16 1009.9 - 0.0
01/12:00pm 31.5 32.5 18.7 46 8.4 NNW 11 20 6 11 1010.6 1009.0 0.0
01/11:30am 31.5 31.8 18.7 46 8.4 N 15 28 8 15 1011.0 - 0.0
01/11:00am 29.9 30.3 18.9 51 7.2 N 15 28 8 15 1011.4 - 0.0
01/10:30am 29.9 31.2 19.3 53 7.0 N 11 22 6 12 1011.8 - 0.0
01/10:00am 28.3 28.6 18.8 56 6.2 N 15 24 8 13 1012.2 - 0.0
01/09:30am 27.5 28.3 19.1 60 5.5 NNW 13 20 7 11 1012.4 - 0.0
01/09:00am 27.3 28.1 19.0 60 5.4 N 13 22 7 12 1012.3 1010.8 0.0
01/08:30am 26.7 27.2 19.2 63 4.9 N 15 24 8 13 1011.9 - 0.0
01/08:00am 25.5 25.6 19.2 68 4.1 N 17 24 9 13 1011.6 - 0.0
01/07:30am 24.6 25.0 19.0 71 3.6 NNE 15 28 8 15 1011.7 - 0.0
01/07:00am 23.9 24.6 18.9 73 3.2 N 13 22 7 12 1011.4 - 0.0
01/06:30am 23.4 24.2 19.1 77 2.8 NNE 13 20 7 11 1011.3 - 0.0
01/06:00am 23.4 24.2 19.1 77 2.8 NNE 13 24 7 13 1011.1 1009.5 0.0
01/05:30am 23.3 24.6 19.3 78 2.6 NNE 11 19 6 10 1010.8 - 0.0
01/05:00am 23.3 24.1 19.1 77 2.7 NNE 13 20 7 11 1010.5 - 0.0
01/04:30am 23.3 23.3 18.9 76 2.8 N 17 24 9 13 1010.0 - 0.0
01/04:00am 23.6 23.9 18.8 74 3.1 N 15 24 8 13 1009.9 - 0.0
01/03:30am 23.6 24.7 18.9 75 3.0 N 11 19 6 10 1010.1 - 0.0
01/03:00am 23.5 23.5 19.0 76 2.9 N 17 28 9 15 1010.0 1008.5 0.0
01/02:30am 23.4 23.4 18.9 76 2.9 N 17 24 9 13 1009.5 - 0.0
01/02:00am 23.6 24.0 18.9 75 3.0 NNE 15 26 8 14 1009.9 - 0.0
01/01:30am 23.9 23.9 18.9 73 3.2 N 17 26 9 14 1010.0 - 0.0
01/01:00am 24.3 24.6 18.7 71 3.6 N 15 26 8 14 1010.1 - 0.0
01/12:30am 24.9 24.0 18.3 66 4.2 NNE 20 35 11 19 1010.1 - 0.0
01/12:00am 25.4 25.0 18.0 63 4.7 NNE 17 32 9 17 1010.1 1008.6 0.0
 
Date/Time
EST
Temp
°C
App
Temp
°C
Dew
Point
Rel
Hum
%
Delta-T
°C
Wind Press
QNH
hPa
Press
MSL
hPa
Rain
since 9 am
mm
Dir
 
Spd
km/h
Gust
km/h
Spd
kts
Gust
kts
28/11:30pm 26.1 25.5 17.6 59 5.4 NNE 17 32 9 17 1010.1 - 0.0
28/11:00pm 26.6 26.7 17.5 57 5.8 NNE 13 26 7 14 1010.3 - 0.0
28/10:30pm 26.9 27.1 17.7 57 5.9 NNE 13 19 7 10 1010.3 - 0.0
28/10:00pm 27.3 27.6 17.8 56 6.1 NNE 13 22 7 12 1010.0 - 0.0
28/09:30pm 27.7 28.1 18.1 56 6.2 NNE 13 26 7 14 1010.1 - 0.0
28/09:00pm 28.0 28.8 18.1 55 6.4 NNE 11 20 6 11 1010.0 1008.2 0.0
28/08:30pm 28.1 29.3 18.2 55 6.4 NNE 9 19 5 10 1009.7 - 0.0
28/08:00pm 28.4 30.1 18.4 54 6.5 N 7 11 4 6 1009.5 - 0.0
28/07:30pm 29.1 29.9 18.1 51 7.1 N 11 19 6 10 1008.9 - 0.0
28/07:00pm 29.5 30.6 18.1 50 7.4 N 9 19 5 10 1008.5 - 0.0
28/06:30pm 30.3 30.2 17.8 47 8.1 N 15 26 8 14 1007.9 - 0.0
28/06:00pm 31.7 30.9 17.1 41 9.4 NE 17 24 9 13 1007.6 1005.7 0.0
28/05:30pm 32.4 31.9 16.8 39 10.0 ENE 15 26 8 14 1007.6 - 0.0
28/05:00pm 32.9 33.3 17.3 39 10.1 NNE 11 17 6 9 1007.4 - 0.0
28/04:30pm 32.2 32.3 17.4 41 9.6 NNE 13 24 7 13 1007.4 - 0.0
28/04:00pm 32.4 32.5 17.4 40 9.7 NNE 13 20 7 11 1007.4 - 0.0
28/03:30pm 32.0 32.8 17.3 41 9.5 N 9 15 5 8 1007.5 - 0.0
28/03:00pm 33.3 33.1 17.6 39 10.2 N 15 24 8 13 1007.7 1005.8 0.0
28/02:30pm 33.2 34.1 18.3 41 9.8 N 11 15 6 8 1007.8 - 0.0
28/02:00pm 32.6 33.3 17.9 41 9.6 N 11 20 6 11 1008.2 - 0.0
28/01:30pm 33.5 34.1 18.5 41 9.9 N 13 19 7 10 1008.7 - 0.0
28/01:00pm 31.6 30.9 18.3 45 8.7 NNE 19 24 10 13 1009.1 - 0.0
28/12:30pm 31.7 31.7 18.0 44 8.9 NNE 15 24 8 13 1009.5 - 0.0
28/12:00pm 31.5 32.1 18.7 46 8.4 N 13 24 7 13 1009.8 1008.0 0.0
28/11:30am 31.6 32.5 19.2 47 8.2 N 13 26 7 14 1010.1 - 0.0
28/11:00am 30.9 31.4 19.2 49 7.7 NNE 15 28 8 15 1010.7 - 0.0
28/10:30am 29.1 29.4 18.8 53 6.7 N 15 26 8 14 1011.1 - 0.0
28/10:00am 28.6 28.4 18.6 54 6.5 N 17 26 9 14 1011.5 - 0.0
28/09:30am 27.3 27.6 18.8 59 5.5 N 15 22 8 12 1011.7 - 0.0
28/09:00am 27.5 28.5 19.4 61 5.3 N 13 17 7 9 1011.8 1009.9 0.0
28/08:30am 25.9 26.3 19.1 66 4.4 N 15 24 8 13 1011.8 - 0.0
28/08:00am 24.1 24.5 19.0 73 3.3 N 15 26 8 14 1011.8 - 0.0
28/07:30am 23.6 24.0 18.9 75 3.0 N 15 24 8 13 1011.6 - 0.0
28/07:00am 23.3 23.3 18.9 76 2.8 N 17 26 9 14 1011.5 - 0.0
28/06:30am 23.1 23.9 19.1 78 2.6 N 13 24 7 13 1011.1 - 0.0
28/06:00am 22.9 24.1 19.0 78 2.5 N 11 20 6 11 1010.8 1008.9 0.0
28/05:30am 22.7 23.9 19.0 79 2.4 N 11 20 6 11 1010.3 - 0.0
28/05:00am 22.4 23.6 19.0 81 2.2 NNE 11 19 6 10 1009.8 - 0.0
28/04:30am 22.4 23.6 19.0 81 2.2 NNE 11 19 6 10 1009.7 - 0.0
28/04:00am 22.4 23.9 18.8 80 2.3 NNE 9 13 5 7 1009.4 - 0.0
28/03:30am 22.7 23.7 18.6 77 2.6 NNE 11 15 6 8 1009.2 - 0.0
28/03:00am 23.0 23.5 18.3 75 3.0 NNE 13 19 7 10 1009.4 1007.6 0.0
28/02:30am 23.3 23.3 18.1 72 3.3 NNE 15 20 8 11 1009.3 - 0.0
28/02:00am 23.6 24.1 18.3 72 3.4 NNE 13 20 7 11 1009.4 - 0.0
28/01:30am 24.1 25.0 18.3 70 3.7 NNE 11 20 6 11 1009.6 - 0.0
28/01:00am 24.7 25.8 18.1 66 4.2 N 9 19 5 10 1009.6 - 0.0
28/12:30am 25.0 24.7 18.3 66 4.3 NNE 17 30 9 16 1009.4 - 0.0
28/12:00am 25.4 25.7 18.7 66 4.3 NNE 15 22 8 12 1009.4 1007.6 0.0
 
Date/Time
EST
Temp
°C
App
Temp
°C
Dew
Point
Rel
Hum
%
Delta-T
°C
Wind Press
QNH
hPa
Press
MSL
hPa
Rain
since 9 am
mm
Dir
 
Spd
km/h
Gust
km/h
Spd
kts
Gust
kts
27/11:30pm 25.4 27.0 19.2 68 4.0 NNE 9 15 5 8 1009.6 - 0.0
27/11:00pm 25.5 27.7 19.5 69 3.9 N 7 9 4 5 1009.6 - 0.0
27/10:30pm 25.4 27.5 19.4 69 3.9 N 7 11 4 6 1009.2 - 0.0
27/10:00pm 25.0 27.2 19.5 71 3.6 NNE 7 11 4 6 1008.9 - 0.0
27/09:30pm 25.2 27.9 19.5 70 3.7 N 4 7 2 4 1008.7 - 0.0
27/09:00pm 25.7 28.5 19.6 69 4.0 NNE 4 7 2 4 1008.3 1006.4 0.0
27/08:30pm 26.9 28.9 19.2 62 5.0 NNE 7 11 4 6 1008.0 - 0.0
27/08:00pm 27.2 28.8 19.1 61 5.3 N 9 13 5 7 1007.8 - 0.0
27/07:30pm 28.2 29.5 18.5 55 6.3 NNE 9 13 5 7 1007.5 - 0.0
27/07:00pm 28.7 29.6 18.4 53 6.7 NNE 11 19 6 10 1006.7 - 0.0
27/06:30pm 29.2 30.4 18.3 51 7.1 N 9 15 5 8 1006.5 - 0.0
27/06:00pm 30.3 31.0 18.0 47 8.0 NNE 11 17 6 9 1006.3 1004.5 0.0
27/05:30pm 30.9 31.9 17.8 45 8.5 NNE 9 15 5 8 1006.2 - 0.0
27/05:00pm 31.4 32.5 18.0 44 8.7 NNW 9 17 5 9 1006.1 - 0.0
27/04:30pm 31.8 32.7 18.4 45 8.8 NE 11 19 6 10 1005.9 - 0.0
27/04:00pm 31.9 33.1 18.3 44 8.9 N 9 17 5 9 1005.8 - 0.0
27/03:30pm 31.5 33.2 18.5 46 8.5 NW 7 15 4 8 1006.1 - 0.0
27/03:00pm 31.1 31.5 18.2 46 8.4 NNW 13 20 7 11 1006.5 1004.7 0.0
27/02:30pm 30.1 31.2 18.8 50 7.4 N 11 19 6 10 1006.9 - 0.0
27/02:00pm 29.5 30.5 18.6 52 7.1 N 11 19 6 10 1007.4 - 0.0
27/01:30pm 30.8 31.7 19.3 50 7.6 N 13 22 7 12 1007.8 - 0.0

Other Formats:

Comma delimited format used in spreadsheet applications
http://www.bom.gov.au/fwo/IDQ60801/IDQ60801.95529.axf

JavaScript Object Notation format (JSON) in row-major order
http://www.bom.gov.au/fwo/IDQ60801/IDQ60801.95529.json